sensor_id;sensor_type;location;lat;lon;timestamp;pressure;altitude;pressure_sealevel;temperature;humidity
21236;BME280;10775;42.678;26.324;2023-03-01T00:01:32;99450.00;;;7.33;100.00
21236;BME280;10775;42.678;26.324;2023-03-01T00:03:59;99431.81;;;7.41;100.00
21236;BME280;10775;42.678;26.324;2023-03-01T00:06:25;99438.81;;;7.53;100.00
21236;BME280;10775;42.678;26.324;2023-03-01T00:08:51;99435.38;;;7.57;100.00
21236;BME280;10775;42.678;26.324;2023-03-01T00:11:28;99437.06;;;7.44;100.00
21236;BME280;10775;42.678;26.324;2023-03-01T00:13:56;99431.91;;;7.58;100.00
21236;BME280;10775;42.678;26.324;2023-03-01T00:16:33;99428.44;;;7.67;100.00
21236;BME280;10775;42.678;26.324;2023-03-01T00:18:59;99431.13;;;7.77;100.00
21236;BME280;10775;42.678;26.324;2023-03-01T00:21:26;99433.75;;;7.85;100.00
21236;BME280;10775;42.678;26.324;2023-03-01T00:23:51;99434.59;;;7.84;100.00
21236;BME280;10775;42.678;26.324;2023-03-01T00:26:19;99441.53;;;7.83;100.00
21236;BME280;10775;42.678;26.324;2023-03-01T00:28:45;99442.41;;;7.86;100.00
21236;BME280;10775;42.678;26.324;2023-03-01T00:31:15;99453.69;;;7.83;100.00
21236;BME280;10775;42.678;26.324;2023-03-01T00:33:42;99450.22;;;7.84;100.00
21236;BME280;10775;42.678;26.324;2023-03-01T00:36:08;99452.81;;;7.81;100.00
21236;BME280;10775;42.678;26.324;2023-03-01T00:38:35;99452.81;;;7.78;100.00
21236;BME280;10775;42.678;26.324;2023-03-01T00:41:07;99448.44;;;7.74;100.00
21236;BME280;10775;42.678;26.324;2023-03-01T00:43:33;99445.00;;;7.75;100.00
21236;BME280;10775;42.678;26.324;2023-03-01T00:46:13;99444.94;;;7.62;100.00
21236;BME280;10775;42.678;26.324;2023-03-01T00:48:39;99445.59;;;7.22;100.00
21236;BME280;10775;42.678;26.324;2023-03-01T00:51:42;99448.19;;;7.18;100.00
21236;BME280;10775;42.678;26.324;2023-03-01T00:54:02;99447.44;;;7.43;100.00
21236;BME280;10775;42.678;26.324;2023-03-01T00:56:28;99437.13;;;7.62;100.00
21236;BME280;10775;42.678;26.324;2023-03-01T00:58:54;99439.72;;;7.64;100.00
21236;BME280;10775;42.678;26.324;2023-03-01T01:01:27;99438.00;;;7.63;100.00
21236;BME280;10775;42.678;26.324;2023-03-01T01:04:01;99432.78;;;7.60;100.00
21236;BME280;10775;42.678;26.324;2023-03-01T01:06:39;99430.19;;;7.57;100.00
21236;BME280;10775;42.678;26.324;2023-03-01T01:09:06;99424.97;;;7.57;100.00
21236;BME280;10775;42.678;26.324;2023-03-01T01:11:33;99427.56;;;7.55;100.00
21236;BME280;10775;42.678;26.324;2023-03-01T01:14:00;99422.28;;;7.37;100.00
21236;BME280;10775;42.678;26.324;2023-03-01T01:16:27;99419.63;;;7.31;100.00
21236;BME280;10775;42.678;26.324;2023-03-01T01:18:53;99418.81;;;7.36;100.00
21236;BME280;10775;42.678;26.324;2023-03-01T01:21:21;99421.38;;;7.33;100.00
21236;BME280;10775;42.678;26.324;2023-03-01T01:23:47;99430.09;;;7.40;100.00
21236;BME280;10775;42.678;26.324;2023-03-01T01:26:15;99422.31;;;7.51;100.00
21236;BME280;10775;42.678;26.324;2023-03-01T01:28:42;99419.75;;;7.55;100.00
21236;BME280;10775;42.678;26.324;2023-03-01T01:31:07;99417.16;;;7.57;100.00
21236;BME280;10775;42.678;26.324;2023-03-01T01:33:33;99425.84;;;7.63;100.00
21236;BME280;10775;42.678;26.324;2023-03-01T01:35:59;99430.16;;;7.58;100.00
21236;BME280;10775;42.678;26.324;2023-03-01T01:38:25;99424.09;;;7.52;100.00
21236;BME280;10775;42.678;26.324;2023-03-01T01:40:51;99425.75;;;7.44;100.00
21236;BME280;10775;42.678;26.324;2023-03-01T01:43:23;99428.38;;;7.48;100.00
21236;BME280;10775;42.678;26.324;2023-03-01T01:45:50;99417.13;;;7.54;100.00
21236;BME280;10775;42.678;26.324;2023-03-01T01:48:22;99421.47;;;7.52;100.00
21236;BME280;10775;42.678;26.324;2023-03-01T01:50:57;99415.41;;;7.57;100.00
21236;BME280;10775;42.678;26.324;2023-03-01T01:53:24;99410.22;;;7.60;100.00
21236;BME280;10775;42.678;26.324;2023-03-01T01:55:54;99416.28;;;7.58;100.00
21236;BME280;10775;42.678;26.324;2023-03-01T01:58:24;99416.31;;;7.59;100.00
21236;BME280;10775;42.678;26.324;2023-03-01T02:00:50;99406.72;;;7.54;100.00
21236;BME280;10775;42.678;26.324;2023-03-01T02:03:24;99409.25;;;7.38;100.00
21236;BME280;10775;42.678;26.324;2023-03-01T02:05:59;99404.09;;;7.46;100.00
21236;BME280;10775;42.678;26.324;2023-03-01T02:08:28;99407.56;;;7.48;100.00
21236;BME280;10775;42.678;26.324;2023-03-01T02:10:56;99398.91;;;7.51;100.00
21236;BME280;10775;42.678;26.324;2023-03-01T02:13:23;99400.66;;;7.52;100.00
21236;BME280;10775;42.678;26.324;2023-03-01T02:15:48;99397.19;;;7.50;100.00
21236;BME280;10775;42.678;26.324;2023-03-01T02:18:17;99395.38;;;7.38;100.00
21236;BME280;10775;42.678;26.324;2023-03-01T02:20:52;99386.72;;;7.40;100.00
21236;BME280;10775;42.678;26.324;2023-03-01T02:23:22;99384.97;;;7.35;100.00
21236;BME280;10775;42.678;26.324;2023-03-01T02:28:40;99368.44;;;7.22;100.00
21236;BME280;10775;42.678;26.324;2023-03-01T02:31:09;99364.97;;;7.18;100.00
21236;BME280;10775;42.678;26.324;2023-03-01T02:33:55;99374.53;;;7.24;100.00
21236;BME280;10775;42.678;26.324;2023-03-01T02:36:26;99370.13;;;7.12;100.00
21236;BME280;10775;42.678;26.324;2023-03-01T02:38:57;99375.38;;;7.20;100.00
21236;BME280;10775;42.678;26.324;2023-03-01T02:41:24;99379.78;;;7.35;100.00
21236;BME280;10775;42.678;26.324;2023-03-01T02:43:50;99378.94;;;7.45;100.00
21236;BME280;10775;42.678;26.324;2023-03-01T02:46:21;99375.50;;;7.54;100.00
21236;BME280;10775;42.678;26.324;2023-03-01T02:48:54;99390.22;;;7.46;100.00
21236;BME280;10775;42.678;26.324;2023-03-01T02:56:20;99384.19;;;7.56;100.00
21236;BME280;10775;42.678;26.324;2023-03-01T02:58:46;99384.94;;;7.33;100.00
21236;BME280;10775;42.678;26.324;2023-03-01T03:01:16;99384.91;;;7.26;100.00
21236;BME280;10775;42.678;26.324;2023-03-01T03:03:42;99381.47;;;7.27;100.00
21236;BME280;10775;42.678;26.324;2023-03-01T03:06:07;99387.59;;;7.36;100.00
21236;BME280;10775;42.678;26.324;2023-03-01T03:08:33;99384.97;;;7.35;100.00
21236;BME280;10775;42.678;26.324;2023-03-01T03:10:58;99385.84;;;7.35;100.00
21236;BME280;10775;42.678;26.324;2023-03-01T03:13:24;99386.75;;;7.42;100.00
21236;BME280;10775;42.678;26.324;2023-03-01T03:15:55;99380.69;;;7.48;100.00
21236;BME280;10775;42.678;26.324;2023-03-01T03:18:21;99385.00;;;7.43;100.00
21236;BME280;10775;42.678;26.324;2023-03-01T03:20:47;99377.94;;;7.12;100.00
21236;BME280;10775;42.678;26.324;2023-03-01T03:23:17;99392.72;;;7.23;100.00
21236;BME280;10775;42.678;26.324;2023-03-01T03:25:43;99395.28;;;7.18;100.00
21236;BME280;10775;42.678;26.324;2023-03-01T03:28:08;99389.25;;;7.28;100.00
21236;BME280;10775;42.678;26.324;2023-03-01T03:30:39;99388.41;;;7.26;100.00
21236;BME280;10775;42.678;26.324;2023-03-01T03:33:06;99392.78;;;7.35;100.00
21236;BME280;10775;42.678;26.324;2023-03-01T03:35:34;99397.06;;;7.22;100.00
21236;BME280;10775;42.678;26.324;2023-03-01T03:38:06;99399.66;;;7.22;100.00
21236;BME280;10775;42.678;26.324;2023-03-01T03:46:06;99384.09;;;7.30;100.00
21236;BME280;10775;42.678;26.324;2023-03-01T03:48:36;99387.59;;;7.39;100.00
21236;BME280;10775;42.678;26.324;2023-03-01T03:51:02;99384.09;;;7.31;100.00
21236;BME280;10775;42.678;26.324;2023-03-01T03:53:30;99385.84;;;7.34;100.00
21236;BME280;10775;42.678;26.324;2023-03-01T03:55:56;99373.69;;;7.30;100.00
21236;BME280;10775;42.678;26.324;2023-03-01T03:58:40;99384.91;;;7.19;100.00
21236;BME280;10775;42.678;26.324;2023-03-01T04:01:24;99382.34;;;7.29;100.00
21236;BME280;10775;42.678;26.324;2023-03-01T04:03:50;99384.13;;;7.40;100.00
21236;BME280;10775;42.678;26.324;2023-03-01T04:06:19;99381.53;;;7.45;100.00
21236;BME280;10775;42.678;26.324;2023-03-01T04:08:45;99381.50;;;7.37;100.00
21236;BME280;10775;42.678;26.324;2023-03-01T04:11:11;99377.94;;;7.15;100.00
21236;BME280;10775;42.678;26.324;2023-03-01T04:13:54;99390.03;;;7.10;100.00
21236;BME280;10775;42.678;26.324;2023-03-01T04:16:19;99375.28;;;7.08;100.00
21236;BME280;10775;42.678;26.324;2023-03-01T04:18:45;99375.31;;;7.06;100.00
21236;BME280;10775;42.678;26.324;2023-03-01T04:21:11;99364.94;;;7.14;100.00
21236;BME280;10775;42.678;26.324;2023-03-01T04:23:37;99367.31;;;6.77;100.00
21236;BME280;10775;42.678;26.324;2023-03-01T04:26:03;99371.53;;;6.58;100.00
21236;BME280;10775;42.678;26.324;2023-03-01T04:28:34;99378.47;;;6.58;100.00
21236;BME280;10775;42.678;26.324;2023-03-01T04:31:11;99370.91;;;6.93;100.00
21236;BME280;10775;42.678;26.324;2023-03-01T04:33:46;99367.53;;;7.15;100.00
21236;BME280;10775;42.678;26.324;2023-03-01T04:36:14;99370.16;;;7.17;100.00
21236;BME280;10775;42.678;26.324;2023-03-01T04:38:40;99363.22;;;7.19;100.00
21236;BME280;10775;42.678;26.324;2023-03-01T04:41:07;99365.03;;;7.32;100.00
21236;BME280;10775;42.678;26.324;2023-03-01T04:43:34;99366.78;;;7.36;100.00
21236;BME280;10775;42.678;26.324;2023-03-01T04:46:01;99363.31;;;7.39;100.00
21236;BME280;10775;42.678;26.324;2023-03-01T04:48:28;99352.06;;;7.42;100.00
21236;BME280;10775;42.678;26.324;2023-03-01T04:50:54;99353.78;;;7.43;100.00
21236;BME280;10775;42.678;26.324;2023-03-01T04:53:19;99346.81;;;7.35;100.00
21236;BME280;10775;42.678;26.324;2023-03-01T04:55:44;99342.44;;;7.28;100.00
21236;BME280;10775;42.678;26.324;2023-03-01T04:58:10;99353.75;;;7.29;100.00
21236;BME280;10775;42.678;26.324;2023-03-01T05:00:35;99357.22;;;7.32;100.00
21236;BME280;10775;42.678;26.324;2023-03-01T05:03:01;99358.94;;;7.33;100.00
21236;BME280;10775;42.678;26.324;2023-03-01T05:05:32;99359.75;;;7.20;100.00
21236;BME280;10775;42.678;26.324;2023-03-01T05:07:59;99358.03;;;7.19;100.00
21236;BME280;10775;42.678;26.324;2023-03-01T05:10:27;99353.72;;;7.26;100.00
21236;BME280;10775;42.678;26.324;2023-03-01T05:12:54;99348.53;;;7.29;100.00
21236;BME280;10775;42.678;26.324;2023-03-01T05:15:22;99357.19;;;7.26;100.00
21236;BME280;10775;42.678;26.324;2023-03-01T05:17:51;99352.00;;;7.26;100.00
21236;BME280;10775;42.678;26.324;2023-03-01T05:20:17;99359.81;;;7.26;100.00
21236;BME280;10775;42.678;26.324;2023-03-01T05:22:42;99354.53;;;7.11;100.00
21236;BME280;10775;42.678;26.324;2023-03-01T05:25:08;99359.72;;;7.09;100.00
21236;BME280;10775;42.678;26.324;2023-03-01T05:27:35;99359.69;;;7.02;100.00
21236;BME280;10775;42.678;26.324;2023-03-01T05:30:00;99364.03;;;7.04;100.00
21236;BME280;10775;42.678;26.324;2023-03-01T05:32:47;99364.88;;;6.99;100.00
21236;BME280;10775;42.678;26.324;2023-03-01T05:35:15;99364.03;;;7.06;100.00
21236;BME280;10775;42.678;26.324;2023-03-01T05:37:46;99365.81;;;7.17;100.00
21236;BME280;10775;42.678;26.324;2023-03-01T05:40:14;99364.94;;;7.14;100.00
21236;BME280;10775;42.678;26.324;2023-03-01T05:42:59;99374.47;;;7.09;100.00
21236;BME280;10775;42.678;26.324;2023-03-01T05:45:26;99383.06;;;7.00;100.00
21236;BME280;10775;42.678;26.324;2023-03-01T05:47:52;99387.31;;;6.84;100.00
21236;BME280;10775;42.678;26.324;2023-03-01T05:50:20;99393.31;;;6.74;100.00
21236;BME280;10775;42.678;26.324;2023-03-01T05:52:48;99393.34;;;6.79;100.00
21236;BME280;10775;42.678;26.324;2023-03-01T05:55:15;99396.91;;;6.93;100.00
21236;BME280;10775;42.678;26.324;2023-03-01T05:57:41;99399.56;;;7.01;100.00
21236;BME280;10775;42.678;26.324;2023-03-01T06:00:08;99403.94;;;7.11;100.00
21236;BME280;10775;42.678;26.324;2023-03-01T06:02:34;99402.22;;;7.14;100.00
21236;BME280;10775;42.678;26.324;2023-03-01T06:04:59;99399.47;;;6.90;100.00
21236;BME280;10775;42.678;26.324;2023-03-01T06:07:25;99392.59;;;6.98;100.00
21236;BME280;10775;42.678;26.324;2023-03-01T06:09:51;99391.75;;;7.02;100.00
21236;BME280;10775;42.678;26.324;2023-03-01T06:12:16;99397.84;;;7.09;100.00
21236;BME280;10775;42.678;26.324;2023-03-01T06:14:42;99389.19;;;7.08;100.00
21236;BME280;10775;42.678;26.324;2023-03-01T06:17:08;99396.19;;;7.23;100.00
21236;BME280;10775;42.678;26.324;2023-03-01T06:19:33;99400.56;;;7.33;100.00
21236;BME280;10775;42.678;26.324;2023-03-01T06:21:58;99387.47;;;7.18;100.00
21236;BME280;10775;42.678;26.324;2023-03-01T06:24:24;99384.06;;;7.24;100.00
21236;BME280;10775;42.678;26.324;2023-03-01T06:26:53;99384.94;;;7.21;100.00
21236;BME280;10775;42.678;26.324;2023-03-01T06:29:18;99395.28;;;7.12;100.00
21236;BME280;10775;42.678;26.324;2023-03-01T06:31:44;99391.88;;;7.28;100.00
21236;BME280;10775;42.678;26.324;2023-03-01T06:34:11;99383.25;;;7.43;100.00
21236;BME280;10775;42.678;26.324;2023-03-01T06:36:39;99393.72;;;7.49;100.00
21236;BME280;10775;42.678;26.324;2023-03-01T06:39:05;99391.09;;;7.54;100.00
21236;BME280;10775;42.678;26.324;2023-03-01T06:41:31;99384.25;;;7.70;100.00
21236;BME280;10775;42.678;26.324;2023-03-01T06:43:57;99388.59;;;7.78;100.00
21236;BME280;10775;42.678;26.324;2023-03-01T06:46:24;99390.34;;;7.87;100.00
21236;BME280;10775;42.678;26.324;2023-03-01T06:48:49;99390.38;;;7.93;100.00
21236;BME280;10775;42.678;26.324;2023-03-01T06:51:14;99390.38;;;8.05;100.00
21236;BME280;10775;42.678;26.324;2023-03-01T06:53:40;99388.69;;;8.26;100.00
21236;BME280;10775;42.678;26.324;2023-03-01T06:56:06;99386.94;;;8.37;100.00
21236;BME280;10775;42.678;26.324;2023-03-01T06:58:31;99380.00;;;8.55;100.00
21236;BME280;10775;42.678;26.324;2023-03-01T07:00:56;99388.66;;;8.69;100.00
21236;BME280;10775;42.678;26.324;2023-03-01T07:03:22;99387.81;;;8.71;100.00
21236;BME280;10775;42.678;26.324;2023-03-01T07:05:51;99383.47;;;8.80;100.00
21236;BME280;10775;42.678;26.324;2023-03-01T07:08:19;99383.44;;;8.81;100.00
21236;BME280;10775;42.678;26.324;2023-03-01T07:10:45;99391.25;;;8.81;100.00
21236;BME280;10775;42.678;26.324;2023-03-01T07:13:10;99389.53;;;8.92;100.00
21236;BME280;10775;42.678;26.324;2023-03-01T07:15:36;99386.91;;;9.00;100.00
21236;BME280;10775;42.678;26.324;2023-03-01T07:18:02;99386.03;;;8.93;100.00
21236;BME280;10775;42.678;26.324;2023-03-01T07:20:27;99385.13;;;9.10;100.00
21236;BME280;10775;42.678;26.324;2023-03-01T07:22:54;99382.53;;;9.13;100.00
21236;BME280;10775;42.678;26.324;2023-03-01T07:25:21;99388.59;;;9.18;100.00
21236;BME280;10775;42.678;26.324;2023-03-01T07:27:51;99387.66;;;9.30;100.00
21236;BME280;10775;42.678;26.324;2023-03-01T07:30:17;99392.00;;;9.37;100.00
21236;BME280;10775;42.678;26.324;2023-03-01T07:32:43;99393.81;;;9.09;100.00
21236;BME280;10775;42.678;26.324;2023-03-01T07:35:08;99392.13;;;8.94;100.00
21236;BME280;10775;42.678;26.324;2023-03-01T07:37:34;99391.25;;;8.92;100.00
21236;BME280;10775;42.678;26.324;2023-03-01T07:39:59;99393.78;;;9.15;100.00
21236;BME280;10775;42.678;26.324;2023-03-01T07:42:25;99391.19;;;9.26;100.00
21236;BME280;10775;42.678;26.324;2023-03-01T07:44:50;99394.69;;;9.06;100.00
21236;BME280;10775;42.678;26.324;2023-03-01T07:47:16;99385.09;;;9.14;100.00
21236;BME280;10775;42.678;26.324;2023-03-01T07:49:41;99394.63;;;9.25;100.00
21236;BME280;10775;42.678;26.324;2023-03-01T07:52:06;99390.25;;;9.34;100.00
21236;BME280;10775;42.678;26.324;2023-03-01T07:54:34;99385.03;;;9.33;100.00
21236;BME280;10775;42.678;26.324;2023-03-01T07:57:00;99391.97;;;9.40;100.00
21236;BME280;10775;42.678;26.324;2023-03-01T07:59:25;99392.84;;;9.42;100.00
21236;BME280;10775;42.678;26.324;2023-03-01T08:01:57;99394.50;;;9.58;100.00
21236;BME280;10775;42.678;26.324;2023-03-01T08:04:23;99391.94;;;9.49;100.00
21236;BME280;10775;42.678;26.324;2023-03-01T08:06:50;99384.91;;;9.64;100.00
21236;BME280;10775;42.678;26.324;2023-03-01T08:09:16;99384.00;;;9.77;100.00
21236;BME280;10775;42.678;26.324;2023-03-01T08:11:42;99381.34;;;9.85;100.00
21236;BME280;10775;42.678;26.324;2023-03-01T08:14:07;99380.44;;;9.87;100.00
21236;BME280;10775;42.678;26.324;2023-03-01T08:16:33;99378.66;;;9.95;100.00
21236;BME280;10775;42.678;26.324;2023-03-01T08:19:04;99381.25;;;9.95;100.00
21236;BME280;10775;42.678;26.324;2023-03-01T08:21:30;99383.00;;;9.93;100.00
21236;BME280;10775;42.678;26.324;2023-03-01T08:23:55;99382.16;;;9.91;100.00
21236;BME280;10775;42.678;26.324;2023-03-01T08:26:21;99381.19;;;10.06;100.00
21236;BME280;10775;42.678;26.324;2023-03-01T08:28:48;99380.44;;;9.87;100.00
21236;BME280;10775;42.678;26.324;2023-03-01T08:33:53;99377.81;;;9.84;100.00
21236;BME280;10775;42.678;26.324;2023-03-01T08:36:27;99380.41;;;9.92;100.00
21236;BME280;10775;42.678;26.324;2023-03-01T08:38:53;99384.72;;;10.00;100.00
21236;BME280;10775;42.678;26.324;2023-03-01T08:41:19;99375.22;;;9.87;100.00
21236;BME280;10775;42.678;26.324;2023-03-01T08:43:46;99377.75;;;10.01;100.00
21236;BME280;10775;42.678;26.324;2023-03-01T08:46:12;99370.06;;;9.75;100.00
21236;BME280;10775;42.678;26.324;2023-03-01T08:48:38;99376.91;;;9.97;100.00
21236;BME280;10775;42.678;26.324;2023-03-01T08:51:13;99381.22;;;10.03;100.00
21236;BME280;10775;42.678;26.324;2023-03-01T08:53:40;99375.91;;;10.12;100.00
21236;BME280;10775;42.678;26.324;2023-03-01T08:56:06;99381.25;;;9.98;100.00
21236;BME280;10775;42.678;26.324;2023-03-01T08:58:32;99378.53;;;10.14;100.00
21236;BME280;10775;42.678;26.324;2023-03-01T09:00:57;99385.50;;;10.12;100.00
21236;BME280;10775;42.678;26.324;2023-03-01T09:03:24;99374.16;;;10.14;100.00
21236;BME280;10775;42.678;26.324;2023-03-01T09:05:51;99383.72;;;10.17;100.00
21236;BME280;10775;42.678;26.324;2023-03-01T09:08:17;99381.06;;;10.28;100.00
21236;BME280;10775;42.678;26.324;2023-03-01T09:10:43;99375.84;;;10.23;100.00
21236;BME280;10775;42.678;26.324;2023-03-01T09:13:08;99377.50;;;10.35;100.00
21236;BME280;10775;42.678;26.324;2023-03-01T09:15:36;99380.31;;;10.06;100.00
21236;BME280;10775;42.678;26.324;2023-03-01T09:18:02;99367.25;;;10.06;100.00
21236;BME280;10775;42.678;26.324;2023-03-01T09:20:28;99360.28;;;10.06;100.00
21236;BME280;10775;42.678;26.324;2023-03-01T09:22:53;99363.69;;;10.20;100.00
21236;BME280;10775;42.678;26.324;2023-03-01T09:25:19;99367.00;;;10.44;100.00
21236;BME280;10775;42.678;26.324;2023-03-01T09:27:44;99360.94;;;10.37;100.00
21236;BME280;10775;42.678;26.324;2023-03-01T09:30:10;99359.19;;;10.39;100.00
21236;BME280;10775;42.678;26.324;2023-03-01T09:32:36;99360.94;;;10.39;100.00
21236;BME280;10775;42.678;26.324;2023-03-01T09:35:02;99367.06;;;10.35;100.00
21236;BME280;10775;42.678;26.324;2023-03-01T09:37:34;99357.53;;;10.26;100.00
21236;BME280;10775;42.678;26.324;2023-03-01T09:40:00;99364.66;;;10.06;100.00
21236;BME280;10775;42.678;26.324;2023-03-01T09:42:27;99370.75;;;10.03;100.00
21236;BME280;10775;42.678;26.324;2023-03-01T09:45:11;99367.28;;;10.01;100.00
21236;BME280;10775;42.678;26.324;2023-03-01T09:47:41;99368.91;;;10.20;100.00
21236;BME280;10775;42.678;26.324;2023-03-01T09:50:16;99363.56;;;10.39;100.00
21236;BME280;10775;42.678;26.324;2023-03-01T09:52:50;99366.13;;;10.43;100.00
21236;BME280;10775;42.678;26.324;2023-03-01T09:55:33;99353.13;;;10.33;100.00
21236;BME280;10775;42.678;26.324;2023-03-01T10:10:00;99353.13;;;10.36;100.00
21236;BME280;10775;42.678;26.324;2023-03-01T10:12:40;99352.28;;;10.32;100.00
21236;BME280;10775;42.678;26.324;2023-03-01T10:15:19;99361.81;;;10.39;100.00
21236;BME280;10775;42.678;26.324;2023-03-01T10:17:55;99358.31;;;10.37;100.00
21236;BME280;10775;42.678;26.324;2023-03-01T10:20:28;99361.84;;;10.27;100.00
21236;BME280;10775;42.678;26.324;2023-03-01T10:22:55;99354.03;;;10.27;100.00
21236;BME280;10775;42.678;26.324;2023-03-01T10:31:19;99344.59;;;10.11;100.00
21236;BME280;10775;42.678;26.324;2023-03-01T10:33:45;99349.88;;;10.03;100.00
21236;BME280;10775;42.678;26.324;2023-03-01T10:36:13;99346.38;;;10.01;100.00
21236;BME280;10775;42.678;26.324;2023-03-01T10:38:55;99352.50;;;9.98;100.00
21236;BME280;10775;42.678;26.324;2023-03-01T10:41:23;99346.38;;;10.01;100.00
21236;BME280;10775;42.678;26.324;2023-03-01T10:43:54;99347.22;;;10.05;100.00
21236;BME280;10775;42.678;26.324;2023-03-01T10:46:33;99338.50;;;10.09;100.00
21236;BME280;10775;42.678;26.324;2023-03-01T10:51:30;99334.19;;;10.01;100.00
21236;BME280;10775;42.678;26.324;2023-03-01T10:53:56;99336.78;;;10.01;100.00
21236;BME280;10775;42.678;26.324;2023-03-01T10:56:21;99325.50;;;9.96;100.00
21236;BME280;10775;42.678;26.324;2023-03-01T10:59:01;99322.03;;;9.97;100.00
21236;BME280;10775;42.678;26.324;2023-03-01T11:01:29;99323.78;;;9.95;100.00
21236;BME280;10775;42.678;26.324;2023-03-01T11:06:32;99309.66;;;10.19;100.00
21236;BME280;10775;42.678;26.324;2023-03-01T11:09:18;99307.88;;;10.28;100.00
21236;BME280;10775;42.678;26.324;2023-03-01T11:11:44;99311.34;;;10.25;100.00
21236;BME280;10775;42.678;26.324;2023-03-01T11:14:17;99302.66;;;10.31;100.00
21236;BME280;10775;42.678;26.324;2023-03-01T11:16:45;99296.44;;;10.41;100.00
21236;BME280;10775;42.678;26.324;2023-03-01T11:21:40;99296.25;;;10.61;100.00
21236;BME280;10775;42.678;26.324;2023-03-01T11:24:11;99291.06;;;10.56;100.00
21236;BME280;10775;42.678;26.324;2023-03-01T11:26:41;99276.25;;;10.55;100.00
21236;BME280;10775;42.678;26.324;2023-03-01T11:29:26;99279.59;;;10.70;100.00
21236;BME280;10775;42.678;26.324;2023-03-01T11:31:58;99278.72;;;10.69;100.00
21236;BME280;10775;42.678;26.324;2023-03-01T11:34:47;99271.75;;;10.71;100.00
21236;BME280;10775;42.678;26.324;2023-03-01T11:37:28;99259.50;;;10.73;100.00
21236;BME280;10775;42.678;26.324;2023-03-01T11:40:10;99262.19;;;10.69;100.00
21236;BME280;10775;42.678;26.324;2023-03-01T11:42:50;99255.19;;;10.68;100.00
21236;BME280;10775;42.678;26.324;2023-03-01T11:45:21;99258.69;;;10.68;100.00
21236;BME280;10775;42.678;26.324;2023-03-01T11:48:05;99253.34;;;10.79;100.00
21236;BME280;10775;42.678;26.324;2023-03-01T11:50:46;99246.53;;;10.64;100.00
21236;BME280;10775;42.678;26.324;2023-03-01T11:56:31;99248.16;;;10.73;100.00
21236;BME280;10775;42.678;26.324;2023-03-01T11:59:15;99242.94;;;10.74;100.00
21236;BME280;10775;42.678;26.324;2023-03-01T12:09:27;99249.94;;;10.71;100.00
21236;BME280;10775;42.678;26.324;2023-03-01T12:17:42;99236.81;;;10.77;100.00
21236;BME280;10775;42.678;26.324;2023-03-01T12:25:38;99234.97;;;10.83;100.00
21236;BME280;10775;42.678;26.324;2023-03-01T12:38:25;99237.97;;;10.51;100.00
21236;BME280;10775;42.678;26.324;2023-03-01T12:41:11;99236.13;;;10.61;100.00
21236;BME280;10775;42.678;26.324;2023-03-01T12:46:25;99227.19;;;10.76;100.00
21236;BME280;10775;42.678;26.324;2023-03-01T12:51:31;99220.78;;;11.01;100.00
21236;BME280;10775;42.678;26.324;2023-03-01T12:53:59;99224.19;;;11.09;100.00
21236;BME280;10775;42.678;26.324;2023-03-01T12:56:30;99216.34;;;11.06;100.00
21236;BME280;10775;42.678;26.324;2023-03-01T13:10:20;99220.06;;;10.88;100.00
21236;BME280;10775;42.678;26.324;2023-03-01T13:17:48;99216.34;;;11.08;100.00
21236;BME280;10775;42.678;26.324;2023-03-01T13:20:16;99214.69;;;11.01;100.00
21236;BME280;10775;42.678;26.324;2023-03-01T13:22:43;99214.03;;;10.86;100.00
21236;BME280;10775;42.678;26.324;2023-03-01T13:25:16;99220.00;;;10.95;100.00
21236;BME280;10775;42.678;26.324;2023-03-01T13:27:44;99226.19;;;10.89;100.00
21236;BME280;10775;42.678;26.324;2023-03-01T13:35:56;99235.13;;;10.71;100.00
21236;BME280;10775;42.678;26.324;2023-03-01T13:38:47;99228.16;;;10.70;100.00
21236;BME280;10775;42.678;26.324;2023-03-01T13:46:50;99235.41;;;10.45;100.00
21236;BME280;10775;42.678;26.324;2023-03-01T13:49:20;99233.78;;;10.30;100.00
21236;BME280;10775;42.678;26.324;2023-03-01T13:51:47;99232.03;;;10.32;100.00
21236;BME280;10775;42.678;26.324;2023-03-01T13:54:15;99228.69;;;10.18;100.00
21236;BME280;10775;42.678;26.324;2023-03-01T13:56:41;99232.91;;;10.34;100.00
21236;BME280;10775;42.678;26.324;2023-03-01T14:01:41;99230.59;;;10.00;100.00
21236;BME280;10775;42.678;26.324;2023-03-01T14:04:20;99232.34;;;9.98;100.00
21236;BME280;10775;42.678;26.324;2023-03-01T14:06:46;99230.59;;;10.00;100.00
21236;BME280;10775;42.678;26.324;2023-03-01T14:09:22;99224.38;;;10.11;100.00
21236;BME280;10775;42.678;26.324;2023-03-01T14:12:05;99225.22;;;10.16;100.00
21236;BME280;10775;42.678;26.324;2023-03-01T14:14:45;99228.56;;;10.30;100.00
21236;BME280;10775;42.678;26.324;2023-03-01T14:20:18;99227.97;;;9.99;100.00
21236;BME280;10775;42.678;26.324;2023-03-01T14:22:45;99216.44;;;10.20;100.00
21236;BME280;10775;42.678;26.324;2023-03-01T14:25:33;99220.97;;;10.04;100.00
21236;BME280;10775;42.678;26.324;2023-03-01T14:28:13;99226.28;;;9.92;100.00
21236;BME280;10775;42.678;26.324;2023-03-01T14:30:54;99218.59;;;9.75;100.00
21236;BME280;10775;42.678;26.324;2023-03-01T14:33:33;99231.88;;;9.43;100.00
21236;BME280;10775;42.678;26.324;2023-03-01T14:36:01;99236.19;;;9.48;100.00
21236;BME280;10775;42.678;26.324;2023-03-01T14:41:05;99236.75;;;9.89;100.00
21236;BME280;10775;42.678;26.324;2023-03-01T14:43:31;99237.94;;;9.48;100.00
21236;BME280;10775;42.678;26.324;2023-03-01T14:45:57;99239.84;;;9.20;100.00
21236;BME280;10775;42.678;26.324;2023-03-01T14:48:23;99231.34;;;8.84;100.00
21236;BME280;10775;42.678;26.324;2023-03-01T14:50:50;99239.16;;;8.88;100.00
21236;BME280;10775;42.678;26.324;2023-03-01T14:53:22;99238.16;;;9.14;100.00